Time;durP1;ratioP1;P1;durP2;ratioP2;P2;SDS_P1;SDS_P2;PMS_P1;PMS_P2;Temp;Humidity;BMP_temperature;BMP_pressure;BME280_temperature;BME280_humidity;BME280_pressure;Samples;Min_cycle;Max_cycle;Signal;HPM_P1;HPM_P2
2023/08/09 00:00:32;;;;;;;4.20;3.60;;;16.30;99.90;;;;;;5072893;28;20184;-83
2023/08/09 00:03:01;;;;;;;4.37;4.03;;;16.30;99.90;;;;;;5073385;28;20168;-83
2023/08/09 00:05:27;;;;;;;4.77;3.83;;;16.30;99.90;;;;;;5073291;28;20207;-83
2023/08/09 00:07:53;;;;;;;6.47;4.37;;;16.20;99.90;;;;;;5073067;28;20216;-83
2023/08/09 00:10:19;;;;;;;6.50;4.67;;;16.30;99.90;;;;;;5073148;28;20172;-82
2023/08/09 00:12:45;;;;;;;5.93;4.07;;;16.30;99.90;;;;;;5072941;28;20238;-83
2023/08/09 00:15:11;;;;;;;5.67;4.00;;;16.30;99.90;;;;;;5073220;28;20172;-82
2023/08/09 00:17:37;;;;;;;4.07;3.67;;;16.50;99.90;;;;;;5073218;28;20251;-82
2023/08/09 00:20:04;;;;;;;6.53;4.23;;;16.50;99.90;;;;;;5073242;28;20214;-82
2023/08/09 00:22:30;;;;;;;5.20;4.53;;;16.50;99.90;;;;;;5072794;28;20164;-83
2023/08/09 00:24:59;;;;;;;9.20;3.93;;;16.50;99.90;;;;;;5073040;28;20685;-81
2023/08/09 00:27:25;;;;;;;6.93;4.00;;;16.50;99.90;;;;;;5072925;28;20184;-84
2023/08/09 00:29:51;;;;;;;6.00;4.07;;;16.50;99.90;;;;;;5073436;28;20632;-83
2023/08/09 00:32:17;;;;;;;5.20;3.77;;;16.50;99.90;;;;;;5073214;28;20179;-85
2023/08/09 00:34:43;;;;;;;7.77;3.73;;;16.50;99.90;;;;;;5073025;28;20176;-83
2023/08/09 00:37:08;;;;;;;9.03;4.57;;;16.60;99.90;;;;;;5072728;28;20179;-83
2023/08/09 00:39:34;;;;;;;5.03;4.30;;;16.60;99.90;;;;;;5072973;28;20179;-82
2023/08/09 00:42:00;;;;;;;5.80;4.60;;;16.50;99.90;;;;;;5072609;28;20295;-82
2023/08/09 00:44:25;;;;;;;7.47;4.63;;;16.50;99.90;;;;;;5073056;28;20173;-83
2023/08/09 00:46:51;;;;;;;5.37;4.80;;;16.50;99.90;;;;;;5072833;28;20623;-83
2023/08/09 00:49:17;;;;;;;5.10;4.60;;;16.50;99.90;;;;;;5072817;28;20180;-83
2023/08/09 00:51:44;;;;;;;5.97;4.80;;;16.50;99.90;;;;;;5072360;28;20172;-83
2023/08/09 00:54:10;;;;;;;5.23;4.43;;;16.50;99.90;;;;;;5072569;28;20180;-83
2023/08/09 00:56:35;;;;;;;5.00;4.47;;;16.50;99.90;;;;;;5072520;28;20226;-83
2023/08/09 00:59:02;;;;;;;5.83;4.80;;;16.50;99.90;;;;;;5071187;28;20540;-82
2023/08/09 01:01:28;;;;;;;5.33;4.83;;;16.50;99.90;;;;;;5072967;28;20646;-83
2023/08/09 01:03:54;;;;;;;8.40;4.87;;;16.60;99.90;;;;;;5072129;28;20173;-82
2023/08/09 01:06:37;;;;;;;8.70;5.30;;;16.50;99.90;;;;;;5072406;28;20203;-82
2023/08/09 01:09:29;;;;;;;6.43;5.30;;;16.60;99.90;;;;;;5072506;28;20208;-83
2023/08/09 01:12:01;;;;;;;6.03;5.53;;;16.50;99.90;;;;;;5072459;28;20169;-83
2023/08/09 01:14:29;;;;;;;6.00;5.40;;;16.60;99.90;;;;;;5075218;28;20168;-82
2023/08/09 01:16:56;;;;;;;6.00;5.40;;;16.50;99.90;;;;;;5074765;28;20180;-83
2023/08/09 01:19:41;;;;;;;5.90;5.40;;;16.60;99.90;;;;;;5075595;28;20222;-83
2023/08/09 01:22:15;;;;;;;10.40;5.97;;;16.50;99.90;;;;;;5076060;28;20176;-83
2023/08/09 01:24:42;;;;;;;7.27;6.10;;;16.50;99.90;;;;;;5075865;28;20643;-83
2023/08/09 01:27:08;;;;;;;6.20;5.70;;;16.50;99.90;;;;;;5074442;28;20224;-82
2023/08/09 01:29:38;;;;;;;8.10;6.10;;;16.60;99.90;;;;;;5075857;28;20201;-82
2023/08/09 01:32:04;;;;;;;6.77;6.17;;;16.50;99.90;;;;;;5075787;28;20196;-82
2023/08/09 01:34:30;;;;;;;8.10;6.27;;;16.50;99.90;;;;;;5075551;28;20181;-83
2023/08/09 01:37:14;;;;;;;9.63;7.07;;;16.50;99.90;;;;;;5075642;28;20587;-83
2023/08/09 01:39:41;;;;;;;9.17;7.17;;;16.50;99.90;;;;;;5075793;28;20255;-83
2023/08/09 01:42:08;;;;;;;9.57;7.30;;;16.50;99.90;;;;;;5075681;28;20224;-82
2023/08/09 01:44:35;;;;;;;11.63;7.43;;;16.50;99.90;;;;;;5075754;28;20188;-83
2023/08/09 01:47:02;;;;;;;11.47;7.30;;;16.50;99.90;;;;;;5075737;28;20204;-82
2023/08/09 01:49:27;;;;;;;9.20;8.00;;;16.60;99.90;;;;;;5075280;28;20259;-83
2023/08/09 01:51:53;;;;;;;10.73;7.53;;;16.70;99.90;;;;;;5074327;28;20207;-82
2023/08/09 01:54:19;;;;;;;8.00;7.30;;;16.60;99.90;;;;;;5074112;28;20560;-83
2023/08/09 01:56:45;;;;;;;9.23;8.10;;;16.70;99.90;;;;;;5075576;28;20171;-82
2023/08/09 01:59:11;;;;;;;9.47;7.97;;;16.60;99.90;;;;;;5075376;28;20172;-83
2023/08/09 02:01:36;;;;;;;9.17;7.83;;;16.70;99.90;;;;;;5075427;28;20245;-83
2023/08/09 02:04:05;;;;;;;9.10;8.30;;;16.70;99.90;;;;;;5074967;28;20656;-83
2023/08/09 02:06:34;;;;;;;8.63;7.73;;;16.70;99.90;;;;;;5075565;28;20271;-82
2023/08/09 02:09:00;;;;;;;10.87;8.27;;;16.70;99.90;;;;;;5075124;28;20224;-83
2023/08/09 02:11:26;;;;;;;9.00;8.10;;;16.70;99.90;;;;;;5075130;28;20319;-83
2023/08/09 02:13:52;;;;;;;9.50;7.87;;;16.70;99.90;;;;;;5075257;28;20184;-82
2023/08/09 02:16:18;;;;;;;8.73;7.63;;;16.70;99.90;;;;;;5075413;28;20533;-83
2023/08/09 02:18:44;;;;;;;8.47;7.67;;;16.70;99.90;;;;;;5074814;28;20650;-83
2023/08/09 02:21:10;;;;;;;10.73;8.40;;;16.60;99.90;;;;;;5075100;28;20165;-83
2023/08/09 02:23:37;;;;;;;10.00;7.03;;;16.70;99.90;;;;;;5073367;28;20263;-83
2023/08/09 02:26:04;;;;;;;8.63;7.50;;;16.70;99.90;;;;;;5074757;28;20172;-83
2023/08/09 02:28:29;;;;;;;11.07;7.40;;;16.70;99.90;;;;;;5074922;28;20208;-83
2023/08/09 02:30:56;;;;;;;10.30;6.87;;;16.70;99.90;;;;;;5074838;28;20575;-82
2023/08/09 02:33:22;;;;;;;4.57;4.10;;;16.70;99.90;;;;;;5074843;28;20168;-82
2023/08/09 02:35:56;;;;;;;2.90;2.80;;;16.60;99.90;;;;;;5074696;28;20164;-83
2023/08/09 02:38:27;;;;;;;3.33;2.20;;;16.40;99.90;;;;;;5074739;28;20204;-83
2023/08/09 02:40:54;;;;;;;1.47;1.37;;;16.50;99.90;;;;;;5074318;28;20165;-83
2023/08/09 02:43:21;;;;;;;1.60;1.50;;;16.40;99.90;;;;;;5074500;28;20173;-83
2023/08/09 02:45:47;;;;;;;1.40;1.30;;;16.40;99.90;;;;;;5072992;28;20173;-82
2023/08/09 02:48:13;;;;;;;1.50;1.40;;;16.30;99.90;;;;;;5074292;28;20694;-82
2023/08/09 02:50:39;;;;;;;1.70;1.60;;;16.30;99.90;;;;;;5074256;28;20165;-82
2023/08/09 02:53:05;;;;;;;1.83;1.73;;;16.20;99.90;;;;;;5074116;28;20698;-84
2023/08/09 02:55:31;;;;;;;2.50;2.30;;;16.30;99.90;;;;;;5074255;28;20165;-84
2023/08/09 02:57:59;;;;;;;2.90;2.70;;;16.30;99.90;;;;;;5074183;28;20676;-84
2023/08/09 03:00:25;;;;;;;2.97;2.77;;;16.20;99.90;;;;;;5074326;28;20164;-83
2023/08/09 03:02:50;;;;;;;3.00;2.80;;;16.20;99.90;;;;;;5073114;28;20700;-83
2023/08/09 03:05:16;;;;;;;3.50;3.23;;;16.10;99.90;;;;;;5074275;28;20173;-83
2023/08/09 03:07:42;;;;;;;3.80;3.43;;;16.10;99.90;;;;;;5074204;28;20287;-82
2023/08/09 03:10:08;;;;;;;4.10;3.70;;;16.20;99.90;;;;;;5074221;28;20256;-83
2023/08/09 03:12:34;;;;;;;4.30;3.90;;;16.20;99.90;;;;;;5074299;28;20642;-83
2023/08/09 03:15:01;;;;;;;4.43;3.87;;;16.10;99.90;;;;;;5073679;28;20161;-83
2023/08/09 03:17:26;;;;;;;4.13;3.70;;;16.20;99.90;;;;;;5073823;28;20164;-82
2023/08/09 03:19:52;;;;;;;4.67;4.20;;;16.20;99.90;;;;;;5073987;28;20679;-84
2023/08/09 03:22:18;;;;;;;5.27;4.30;;;16.20;99.90;;;;;;5073845;28;20692;-84
2023/08/09 03:24:43;;;;;;;4.20;3.87;;;16.10;99.90;;;;;;5073749;28;20221;-83
2023/08/09 03:27:09;;;;;;;4.57;4.17;;;16.00;99.90;;;;;;5073713;28;20644;-83
2023/08/09 03:29:35;;;;;;;4.93;4.53;;;16.10;99.90;;;;;;5073309;28;20181;-83
2023/08/09 03:32:00;;;;;;;4.63;4.30;;;16.10;99.90;;;;;;5073644;28;20176;-83
2023/08/09 03:34:26;;;;;;;5.17;4.63;;;16.10;99.90;;;;;;5073514;28;20173;-83
2023/08/09 03:36:52;;;;;;;5.17;4.73;;;16.20;99.90;;;;;;5072914;28;20196;-83
2023/08/09 03:39:17;;;;;;;4.97;4.57;;;16.30;99.90;;;;;;5073527;28;20179;-83
2023/08/09 03:41:43;;;;;;;5.70;4.80;;;16.30;99.90;;;;;;5073175;28;20687;-82
2023/08/09 03:44:09;;;;;;;6.40;5.27;;;16.20;99.90;;;;;;5073255;28;20188;-82
2023/08/09 03:46:34;;;;;;;6.20;5.40;;;16.30;99.90;;;;;;5073240;28;20173;-83
2023/08/09 03:49:01;;;;;;;5.63;5.23;;;16.30;99.90;;;;;;5075792;28;20212;-83
2023/08/09 03:51:27;;;;;;;5.73;5.23;;;16.30;99.90;;;;;;5078782;28;20168;-83
2023/08/09 03:53:52;;;;;;;8.53;5.33;;;16.30;99.90;;;;;;5076293;28;20680;-82
2023/08/09 03:56:18;;;;;;;6.07;5.57;;;16.30;99.90;;;;;;5077078;28;20228;-81
2023/08/09 03:58:44;;;;;;;4.40;4.10;;;16.30;99.90;;;;;;5077142;28;20620;-82
2023/08/09 04:01:09;;;;;;;7.63;4.50;;;16.20;99.90;;;;;;5078001;28;20219;-82
2023/08/09 04:03:35;;;;;;;6.23;4.00;;;16.00;99.90;;;;;;5075925;28;20180;-83
2023/08/09 04:06:02;;;;;;;5.17;4.67;;;16.00;99.90;;;;;;5073959;28;20229;-82
2023/08/09 04:08:29;;;;;;;5.47;4.90;;;16.00;99.90;;;;;;5073313;28;20346;-82
2023/08/09 04:10:56;;;;;;;5.67;5.13;;;16.00;99.90;;;;;;5073462;28;20164;-82
2023/08/09 04:13:21;;;;;;;7.50;5.63;;;16.00;99.90;;;;;;5071836;28;20539;-83
2023/08/09 04:15:47;;;;;;;6.47;5.97;;;16.10;99.90;;;;;;5073090;28;20180;-82
2023/08/09 04:18:16;;;;;;;6.87;6.27;;;16.00;99.90;;;;;;5073450;28;20183;-82
2023/08/09 04:20:43;;;;;;;7.13;6.50;;;16.00;99.90;;;;;;5073157;28;20172;-83
2023/08/09 04:23:09;;;;;;;7.60;6.83;;;16.10;99.90;;;;;;5071437;28;20172;-83
2023/08/09 04:25:35;;;;;;;7.67;6.87;;;16.10;99.90;;;;;;5073121;28;20643;-83
2023/08/09 04:28:01;;;;;;;10.03;7.70;;;16.30;99.90;;;;;;5072659;28;20253;-82
2023/08/09 04:30:27;;;;;;;8.77;7.97;;;16.40;99.90;;;;;;5071126;28;20217;-83
2023/08/09 04:32:53;;;;;;;11.27;8.37;;;16.50;99.90;;;;;;5072854;28;20264;-83
2023/08/09 04:35:19;;;;;;;9.80;7.47;;;16.60;99.90;;;;;;5072821;28;20582;-83
2023/08/09 04:37:45;;;;;;;8.60;7.53;;;16.80;99.90;;;;;;5073178;28;20210;-82
2023/08/09 04:40:11;;;;;;;8.45;7.32;;;17.00;99.90;;;;;;5073200;28;20204;-83
2023/08/09 04:42:41;;;;;;;7.10;6.40;;;17.40;99.90;;;;;;5072386;28;20726;-82
2023/08/09 04:45:10;;;;;;;7.07;6.50;;;18.00;99.90;;;;;;5072809;28;20180;-82
2023/08/09 04:47:37;;;;;;;6.57;5.82;;;18.50;99.90;;;;;;5074411;28;20204;-83
2023/08/09 04:50:04;;;;;;;6.57;5.97;;;18.90;99.90;;;;;;5075203;28;20188;-83
2023/08/09 04:52:30;;;;;;;8.45;6.28;;;19.10;99.90;;;;;;5075960;28;20207;-83
2023/08/09 04:54:56;;;;;;;5.90;5.50;;;19.30;99.90;;;;;;5075988;28;20243;-83
2023/08/09 04:57:22;;;;;;;6.47;5.85;;;19.10;99.90;;;;;;5075850;28;20161;-83
2023/08/09 04:59:48;;;;;;;6.63;6.00;;;18.80;99.90;;;;;;5076278;28;20176;-82
2023/08/09 05:02:14;;;;;;;6.80;6.15;;;18.70;99.90;;;;;;5076216;28;20169;-83
2023/08/09 05:04:39;;;;;;;7.38;6.70;;;18.60;99.90;;;;;;5057778;28;20245;-84
2023/08/09 05:07:05;;;;;;;7.57;6.88;;;18.40;99.90;;;;;;5076144;28;20172;-84
2023/08/09 05:09:31;;;;;;;7.95;6.80;;;18.40;99.90;;;;;;5075973;28;20180;-84
2023/08/09 05:11:58;;;;;;;7.72;6.82;;;18.50;99.90;;;;;;5075934;28;20666;-83
2023/08/09 05:14:25;;;;;;;7.43;6.72;;;18.50;99.90;;;;;;5076334;28;20196;-83
2023/08/09 05:16:51;;;;;;;8.55;7.05;;;18.50;99.90;;;;;;5075667;28;20676;-85
2023/08/09 05:19:17;;;;;;;7.65;6.95;;;18.60;99.90;;;;;;5075724;28;20223;-83
2023/08/09 05:21:42;;;;;;;7.63;6.90;;;18.30;99.90;;;;;;5075825;28;20225;-83
2023/08/09 05:24:08;;;;;;;8.30;7.05;;;18.30;99.90;;;;;;5075799;28;20176;-84
2023/08/09 05:26:34;;;;;;;7.88;6.22;;;18.50;99.90;;;;;;5075644;28;20161;-82
2023/08/09 05:28:59;;;;;;;7.80;6.68;;;18.90;99.90;;;;;;5075680;28;20695;-83
2023/08/09 05:31:25;;;;;;;6.47;5.88;;;19.40;99.90;;;;;;5074170;28;20165;-83
2023/08/09 05:33:50;;;;;;;7.45;5.72;;;19.90;99.90;;;;;;5075593;28;20253;-83
2023/08/09 05:36:16;;;;;;;6.18;5.18;;;20.50;92.90;;;;;;5075722;28;20165;-83
2023/08/09 05:38:41;;;;;;;7.88;5.50;;;21.40;64.20;;;;;;5075876;28;20169;-83
2023/08/09 05:41:07;;;;;;;6.75;5.22;;;22.30;36.10;;;;;;5073666;28;20169;-84
2023/08/09 05:43:33;;;;;;;5.70;5.30;;;23.10;10.50;;;;;;5075558;28;20621;-83
2023/08/09 05:45:59;;;;;;;5.22;4.78;;;23.80;1.00;;;;;;5075162;28;20169;-83
2023/08/09 05:48:25;;;;;;;5.53;5.03;;;24.70;1.00;;;;;;5075080;28;20672;-83
2023/08/09 05:50:51;;;;;;;5.15;4.65;;;25.70;1.00;;;;;;5074881;28;20256;-82
2023/08/09 05:53:16;;;;;;;5.15;4.65;;;26.30;1.00;;;;;;5074851;28;20271;-83
2023/08/09 05:55:42;;;;;;;4.80;4.45;;;27.20;1.00;;;;;;5074600;28;20584;-83
2023/08/09 05:58:08;;;;;;;5.40;4.90;;;27.40;1.00;;;;;;5074927;28;20499;-83
2023/08/09 06:00:34;;;;;;;5.13;4.57;;;28.20;1.00;;;;;;5073060;28;20168;-82
2023/08/09 06:03:00;;;;;;;4.97;4.57;;;28.90;1.00;;;;;;5074909;28;20180;-81
2023/08/09 06:05:26;;;;;;;5.75;4.60;;;29.60;99.90;;;;;;5074860;28;20200;-82
2023/08/09 06:07:53;;;;;;;5.05;4.30;;;29.90;1.00;;;;;;5074421;28;20455;-80
2023/08/09 06:10:23;;;;;;;4.60;4.30;;;30.40;18.30;;;;;;5074049;28;20169;-80
2023/08/09 06:12:49;;;;;;;4.63;4.30;;;31.10;99.90;;;;;;5074573;28;20168;-80
2023/08/09 06:15:16;;;;;;;4.22;3.92;;;31.40;99.90;;;;;;5074448;28;20177;-82
2023/08/09 06:17:41;;;;;;;4.70;4.32;;;32.20;1.00;;;;;;5074387;28;20180;-81
2023/08/09 06:20:07;;;;;;;4.10;3.80;;;32.10;1.00;;;;;;5073963;28;20493;-81
2023/08/09 06:22:33;;;;;;;4.45;4.13;;;31.90;1.00;;;;;;5074011;28;20172;-80
2023/08/09 06:24:59;;;;;;;4.45;4.13;;;32.50;1.00;;;;;;5074095;28;20210;-80
2023/08/09 06:27:25;;;;;;;4.65;4.32;;;33.20;99.90;;;;;;5072973;28;20200;-79
2023/08/09 06:29:50;;;;;;;4.90;4.60;;;33.10;84.40;;;;;;5073736;28;20252;-79
2023/08/09 06:32:16;;;;;;;4.85;4.53;;;33.50;5.20;;;;;;5073581;28;20169;-81
2023/08/09 06:34:42;;;;;;;6.50;4.50;;;32.20;99.90;;;;;;5073884;28;20631;-81
2023/08/09 06:37:08;;;;;;;5.95;4.53;;;30.80;1.00;;;;;;5072753;28;20188;-81
2023/08/09 06:39:34;;;;;;;4.70;4.30;;;29.70;99.90;;;;;;5073845;28;20251;-83
2023/08/09 06:42:00;;;;;;;5.00;4.47;;;28.90;1.00;;;;;;5073351;28;20270;-83
2023/08/09 06:44:26;;;;;;;4.80;4.43;;;28.60;99.90;;;;;;5073645;28;20179;-84
2023/08/09 06:46:53;;;;;;;5.90;4.93;;;27.50;98.30;;;;;;5073817;28;20172;-83
2023/08/09 06:49:21;;;;;;;6.68;5.50;;;27.00;1.00;;;;;;5073932;28;20219;-82
2023/08/09 06:51:46;;;;;;;5.72;5.22;;;26.20;1.00;;;;;;5073927;28;20628;-82
2023/08/09 06:54:12;;;;;;;5.63;5.22;;;25.80;1.00;;;;;;5073201;28;20251;-82
2023/08/09 06:56:38;;;;;;;7.18;5.80;;;25.50;1.00;;;;;;5073701;28;20256;-82
2023/08/09 06:59:04;;;;;;;6.13;4.82;;;25.20;1.00;;;;;;5073731;28;20177;-82
2023/08/09 07:01:30;;;;;;;6.22;5.68;;;24.70;1.00;;;;;;5073924;28;20173;-81
2023/08/09 07:03:56;;;;;;;6.25;5.47;;;24.10;1.00;;;;;;5073507;28;20180;-82
2023/08/09 07:06:22;;;;;;;5.95;4.82;;;24.10;1.00;;;;;;5073397;28;20161;-82
2023/08/09 07:08:48;;;;;;;5.03;4.53;;;24.00;1.00;;;;;;5073327;28;20213;-83
2023/08/09 07:11:14;;;;;;;4.63;4.25;;;24.10;1.00;;;;;;5072469;28;20175;-82
2023/08/09 07:13:40;;;;;;;5.00;4.53;;;23.60;1.00;;;;;;5072500;28;20267;-82
2023/08/09 07:16:06;;;;;;;6.43;3.95;;;23.30;1.00;;;;;;5072761;28;20165;-81
2023/08/09 07:18:33;;;;;;;5.60;4.22;;;23.00;1.00;;;;;;5076799;28;20188;-79
2023/08/09 07:20:58;;;;;;;4.10;3.80;;;23.10;1.00;;;;;;5076054;28;20180;-81
2023/08/09 07:23:25;;;;;;;5.05;3.63;;;22.70;1.00;;;;;;5071655;28;20596;-80
2023/08/09 07:25:51;;;;;;;4.28;3.67;;;22.70;1.00;;;;;;5093590;28;20229;-77
2023/08/09 07:28:18;;;;;;;3.58;3.20;;;23.30;38.30;;;;;;5086187;28;20216;-80
2023/08/09 07:30:43;;;;;;;2.80;2.60;;;24.30;72.40;;;;;;5083921;28;20261;-79
2023/08/09 07:33:09;;;;;;;3.00;2.80;;;26.00;1.00;;;;;;5086197;28;20817;-77
2023/08/09 07:35:34;;;;;;;3.97;2.55;;;27.20;99.90;;;;;;5081156;28;20598;-76
2023/08/09 07:38:01;;;;;;;2.75;2.47;;;27.90;82.00;;;;;;5088383;28;20194;-75
2023/08/09 07:40:27;;;;;;;4.55;2.90;;;28.60;1.00;;;;;;5104620;28;20181;-81
2023/08/09 07:42:53;;;;;;;3.28;3.00;;;28.80;1.00;;;;;;5084401;28;20293;-78
2023/08/09 07:45:19;;;;;;;3.78;3.47;;;29.00;99.90;;;;;;5078903;28;20180;-82
2023/08/09 07:47:44;;;;;;;3.90;3.53;;;29.30;1.00;;;;;;5091375;28;20298;-84
2023/08/09 07:50:10;;;;;;;4.40;4.10;;;28.30;83.10;;;;;;5105902;28;20266;-82
2023/08/09 07:52:37;;;;;;;5.05;3.90;;;27.50;99.90;;;;;;5089044;28;20285;-77
2023/08/09 07:55:04;;;;;;;4.78;4.25;;;26.90;1.00;;;;;;5088582;28;20228;-78
2023/08/09 07:57:30;;;;;;;5.70;4.18;;;26.10;98.10;;;;;;5100357;28;20167;-78
2023/08/09 07:59:56;;;;;;;4.53;4.13;;;25.90;1.00;;;;;;5105878;28;20175;-82
2023/08/09 08:02:21;;;;;;;4.30;4.00;;;25.80;99.30;;;;;;5100011;28;20167;-81
2023/08/09 08:04:47;;;;;;;4.60;4.20;;;25.80;97.30;;;;;;5093283;28;20181;-80
2023/08/09 08:07:14;;;;;;;3.95;3.30;;;26.60;1.00;;;;;;5092146;28;20630;-81
2023/08/09 08:09:41;;;;;;;3.40;3.10;;;28.10;1.00;;;;;;5089049;28;20271;-80
2023/08/09 08:12:08;;;;;;;2.97;2.78;;;27.70;99.90;;;;;;5089041;28;20609;-82
2023/08/09 08:14:35;;;;;;;2.85;2.65;;;27.60;99.90;;;;;;5097060;28;20259;-80
2023/08/09 08:17:01;;;;;;;2.92;2.70;;;26.90;99.90;;;;;;5093098;28;20237;-81
2023/08/09 08:19:26;;;;;;;2.83;2.65;;;26.70;1.00;;;;;;5084154;28;20647;-82
2023/08/09 08:21:52;;;;;;;4.15;3.47;;;26.80;1.00;;;;;;5106718;28;20172;-82
2023/08/09 08:24:18;;;;;;;4.40;3.50;;;27.20;99.90;;;;;;5097495;28;20227;-78
2023/08/09 08:26:44;;;;;;;3.42;3.08;;;28.10;99.90;;;;;;5099511;28;20179;-85
2023/08/09 08:29:09;;;;;;;3.15;2.85;;;29.30;99.90;;;;;;5093207;28;20288;-82
2023/08/09 08:31:35;;;;;;;4.28;3.10;;;30.00;99.90;;;;;;5097627;28;20203;-81
2023/08/09 08:34:01;;;;;;;3.72;2.80;;;30.60;99.90;;;;;;5092028;28;20583;-85
2023/08/09 08:36:26;;;;;;;3.97;3.30;;;30.50;1.00;;;;;;5096470;28;20167;-84
2023/08/09 08:38:53;;;;;;;3.40;3.20;;;30.90;92.10;;;;;;5109517;28;20168;-84
2023/08/09 08:41:18;;;;;;;3.25;3.05;;;31.60;1.00;;;;;;5094772;28;20715;-79
2023/08/09 08:43:45;;;;;;;3.67;3.38;;;31.00;99.90;;;;;;5095337;28;20188;-78
2023/08/09 08:46:15;;;;;;;4.70;3.28;;;30.70;1.00;;;;;;5094997;28;20591;-78
2023/08/09 08:48:46;;;;;;;5.03;2.80;;;30.40;1.00;;;;;;5095394;28;20216;-76
2023/08/09 08:51:13;;;;;;;2.90;2.70;;;31.20;99.90;;;;;;5104590;28;20174;-78
2023/08/09 08:53:39;;;;;;;2.72;2.30;;;31.10;1.00;;;;;;5108162;27;20191;-76
2023/08/09 08:56:05;;;;;;;3.03;2.78;;;31.60;1.00;;;;;;5093741;27;20183;-75
2023/08/09 08:58:31;;;;;;;3.90;3.05;;;32.10;17.80;;;;;;5097416;28;20202;-75
2023/08/09 09:00:57;;;;;;;2.95;2.75;;;31.70;1.00;;;;;;5086291;28;20184;-75
2023/08/09 09:03:22;;;;;;;2.80;2.60;;;30.90;1.00;;;;;;5077628;28;20242;-74
2023/08/09 09:05:48;;;;;;;3.15;2.55;;;29.10;99.90;;;;;;5084608;28;20174;-75
2023/08/09 09:08:14;;;;;;;2.78;2.20;;;28.90;1.00;;;;;;5098495;28;20601;-77
2023/08/09 09:10:48;;;;;;;2.83;2.60;;;29.30;1.00;;;;;;5090299;28;20175;-78
2023/08/09 09:13:25;;;;;;;2.50;2.30;;;30.50;1.00;;;;;;5097644;28;20625;-78
2023/08/09 09:15:52;;;;;;;2.72;2.03;;;31.60;1.00;;;;;;5094857;28;20591;-79
2023/08/09 09:18:19;;;;;;;3.08;2.20;;;31.30;1.00;;;;;;5099366;28;20305;-79
2023/08/09 09:20:45;;;;;;;3.60;1.88;;;32.60;99.90;;;;;;5094770;28;20183;-80
2023/08/09 09:23:27;;;;;;;3.33;2.28;;;32.80;99.90;;;;;;5094058;28;20477;-78
2023/08/09 09:26:18;;;;;;;2.65;1.90;;;31.90;99.90;;;;;;5093563;28;20214;-76
2023/08/09 09:28:48;;;;;;;4.90;2.30;;;31.10;1.00;;;;;;5096133;28;20199;-76
2023/08/09 09:31:17;;;;;;;2.10;2.00;;;31.60;1.00;;;;;;5087603;28;20258;-76
2023/08/09 09:33:53;;;;;;;3.67;2.65;;;31.80;1.00;;;;;;5100995;28;20179;-78
2023/08/09 09:36:19;;;;;;;2.42;1.80;;;31.70;1.00;;;;;;5094943;28;20182;-78
2023/08/09 09:38:50;;;;;;;2.80;2.30;;;32.40;1.00;;;;;;5084665;28;20951;-77
2023/08/09 09:41:16;;;;;;;1.98;1.88;;;32.30;1.00;;;;;;5089541;28;20204;-77
2023/08/09 09:43:43;;;;;;;4.28;2.50;;;31.50;1.00;;;;;;5087284;28;20191;-76
2023/08/09 09:46:24;;;;;;;4.75;4.20;;;31.70;1.00;;;;;;5092387;28;20580;-75
2023/08/09 09:49:00;;;;;;;6.20;4.50;;;31.70;99.90;;;;;;5102827;28;20658;-74
2023/08/09 09:51:26;;;;;;;2.63;2.42;;;31.90;99.90;;;;;;5088760;28;20204;-74
2023/08/09 09:53:52;;;;;;;5.40;2.30;;;31.00;1.00;;;;;;5091966;28;20183;-75
2023/08/09 09:56:19;;;;;;;2.40;1.98;;;30.70;86.70;;;;;;5087655;28;20700;-75
2023/08/09 09:58:45;;;;;;;3.97;1.77;;;30.50;1.00;;;;;;5099993;28;20657;-75
2023/08/09 10:01:18;;;;;;;2.88;1.50;;;30.40;1.00;;;;;;5094119;27;20219;-76
2023/08/09 10:03:44;;;;;;;2.75;1.75;;;30.70;1.00;;;;;;5090804;28;20195;-75
2023/08/09 10:06:20;;;;;;;2.75;1.58;;;30.10;1.00;;;;;;5099870;28;20642;-74
2023/08/09 10:08:49;;;;;;;1.50;1.40;;;30.00;1.00;;;;;;5093251;28;20254;-74
2023/08/09 10:11:14;;;;;;;1.88;1.55;;;29.90;1.00;;;;;;5100917;28;20235;-74
2023/08/09 10:13:41;;;;;;;1.95;1.50;;;29.60;1.00;;;;;;5097584;28;20339;-74
2023/08/09 10:16:10;;;;;;;1.60;1.50;;;29.60;99.90;;;;;;5097647;28;20183;-75
2023/08/09 10:18:39;;;;;;;2.92;1.65;;;29.60;1.00;;;;;;5100890;28;20183;-78
2023/08/09 10:21:06;;;;;;;1.80;1.70;;;29.40;1.00;;;;;;5077144;28;20181;-77
2023/08/09 10:23:32;;;;;;;1.95;1.85;;;28.60;1.00;;;;;;5078970;28;20184;-75
2023/08/09 10:25:58;;;;;;;1.98;1.88;;;28.90;99.90;;;;;;5079321;28;20169;-75
2023/08/09 10:28:47;;;;;;;4.13;2.50;;;29.40;99.90;;;;;;5091905;28;20207;-76
2023/08/09 10:31:13;;;;;;;2.10;1.90;;;29.60;1.00;;;;;;5082322;28;20620;-75
2023/08/09 10:34:10;;;;;;;2.88;2.00;;;30.20;1.00;;;;;;5088946;28;20179;-76
2023/08/09 10:36:35;;;;;;;1.90;1.58;;;29.30;1.00;;;;;;5094148;28;20213;-75
2023/08/09 10:39:22;;;;;;;2.20;2.00;;;28.10;99.90;;;;;;5094313;28;20267;-75
2023/08/09 10:41:59;;;;;;;4.55;1.98;;;27.30;1.00;;;;;;5093857;28;20227;-75
2023/08/09 10:44:35;;;;;;;2.55;1.90;;;28.20;99.90;;;;;;5113781;28;20216;-75
2023/08/09 10:47:07;;;;;;;2.13;2.03;;;28.80;99.90;;;;;;5114065;28;20246;-74
2023/08/09 10:49:54;;;;;;;1.95;1.75;;;28.20;1.00;;;;;;5089841;28;20185;-75
2023/08/09 10:52:29;;;;;;;5.13;1.88;;;28.30;99.90;;;;;;5061711;28;20221;-76
2023/08/09 10:55:19;;;;;;;2.88;2.40;;;28.20;91.20;;;;;;5072903;28;20651;-75
2023/08/09 10:57:50;;;;;;;2.35;1.80;;;28.60;99.90;;;;;;5092366;28;20175;-75
2023/08/09 11:00:16;;;;;;;2.50;2.10;;;28.70;99.90;;;;;;5086661;28;20179;-75
2023/08/09 11:02:52;;;;;;;2.67;2.10;;;29.60;53.90;;;;;;5078209;28;20198;-76
2023/08/09 11:05:19;;;;;;;2.28;2.08;;;29.70;99.90;;;;;;5082433;28;20179;-76
2023/08/09 11:07:51;;;;;;;2.55;1.80;;;29.00;99.90;;;;;;5080715;28;20212;-75
2023/08/09 11:10:39;;;;;;;1.92;1.75;;;29.20;99.90;;;;;;5088862;28;20639;-75
2023/08/09 11:13:13;;;;;;;1.90;1.80;;;29.70;99.90;;;;;;5087115;28;20182;-76
2023/08/09 11:15:46;;;;;;;2.63;1.85;;;29.50;1.00;;;;;;5107667;28;20194;-75
2023/08/09 11:18:12;;;;;;;1.85;1.63;;;29.90;1.00;;;;;;5104670;28;20534;-74
2023/08/09 11:20:38;;;;;;;3.22;1.90;;;29.80;1.00;;;;;;5091108;28;20184;-74
2023/08/09 11:23:04;;;;;;;2.50;1.90;;;29.10;1.00;;;;;;5082810;28;20179;-74
2023/08/09 11:25:31;;;;;;;2.00;1.80;;;28.40;71.80;;;;;;5092237;28;20200;-75
2023/08/09 11:28:00;;;;;;;3.30;1.60;;;28.60;99.90;;;;;;5094950;28;20210;-75
2023/08/09 11:30:28;;;;;;;3.85;1.45;;;28.40;1.00;;;;;;5108064;28;20254;-74
2023/08/09 11:32:56;;;;;;;3.67;1.80;;;27.90;99.90;;;;;;5091605;28;20198;-74
2023/08/09 11:35:43;;;;;;;3.22;1.90;;;27.80;1.00;;;;;;5082596;28;20178;-75
2023/08/09 11:38:16;;;;;;;5.20;1.67;;;28.90;1.00;;;;;;5097559;28;20175;-73
2023/08/09 11:40:42;;;;;;;2.50;1.50;;;29.90;1.00;;;;;;5104998;28;20174;-73
2023/08/09 11:43:17;;;;;;;1.92;1.50;;;30.20;1.00;;;;;;5095614;28;20307;-74
2023/08/09 11:45:44;;;;;;;5.28;2.67;;;31.00;1.00;;;;;;5104631;28;20660;-74
2023/08/09 11:48:26;;;;;;;3.90;2.10;;;31.40;1.00;;;;;;5097633;28;20204;-73
2023/08/09 11:51:19;;;;;;;4.53;1.60;;;29.80;1.00;;;;;;5108086;28;20179;-71
2023/08/09 11:53:47;;;;;;;3.08;1.58;;;29.50;1.00;;;;;;5089204;28;20201;-72
2023/08/09 11:56:18;;;;;;;2.92;1.50;;;30.40;1.00;;;;;;5088504;28;20173;-72
2023/08/09 11:58:46;;;;;;;2.38;1.80;;;30.60;1.00;;;;;;5090868;28;20176;-75
2023/08/09 12:01:21;;;;;;;5.47;1.75;;;30.30;1.00;;;;;;5092786;28;20221;-74
2023/08/09 12:03:49;;;;;;;2.70;1.58;;;29.70;1.00;;;;;;5088835;28;20725;-74
2023/08/09 12:06:17;;;;;;;4.00;1.85;;;29.40;1.00;;;;;;5074884;28;20204;-73
2023/08/09 12:08:42;;;;;;;3.92;1.67;;;28.40;1.00;;;;;;5083696;28;20223;-75
2023/08/09 12:11:13;;;;;;;2.72;2.08;;;27.70;99.90;;;;;;5073002;28;20168;-73
2023/08/09 12:13:39;;;;;;;4.45;1.80;;;27.10;1.00;;;;;;5079091;28;20668;-72
2023/08/09 12:16:06;;;;;;;3.10;1.65;;;26.80;99.90;;;;;;5087888;28;20187;-74
2023/08/09 12:18:35;;;;;;;1.88;1.77;;;26.90;28.90;;;;;;5090897;28;20177;-72
2023/08/09 12:21:02;;;;;;;3.13;1.85;;;26.40;1.00;;;;;;5078827;28;20179;-72
2023/08/09 12:23:28;;;;;;;2.92;1.83;;;26.60;99.90;;;;;;5086882;28;20503;-72
2023/08/09 12:25:53;;;;;;;2.35;1.95;;;26.50;1.00;;;;;;5097682;28;20210;-73
2023/08/09 12:28:19;;;;;;;2.70;1.80;;;26.30;99.90;;;;;;5085421;28;20211;-72
2023/08/09 12:30:44;;;;;;;2.17;1.70;;;26.20;1.00;;;;;;5091741;28;20179;-74
2023/08/09 12:33:11;;;;;;;2.17;1.75;;;26.10;1.00;;;;;;5107095;28;20188;-73
2023/08/09 12:35:36;;;;;;;1.80;1.42;;;25.90;99.90;;;;;;5091754;28;20180;-73
2023/08/09 12:38:02;;;;;;;1.73;1.63;;;25.70;1.00;;;;;;5076490;28;20237;-73
2023/08/09 12:40:28;;;;;;;3.90;2.13;;;26.00;99.90;;;;;;5095864;28;20172;-74
2023/08/09 12:42:54;;;;;;;4.25;1.70;;;26.10;1.00;;;;;;5092827;28;20658;-73
2023/08/09 12:45:19;;;;;;;3.63;1.77;;;26.10;1.00;;;;;;5104343;28;20171;-73
2023/08/09 12:47:45;;;;;;;1.65;1.55;;;26.10;99.90;;;;;;5099757;28;20203;-74
2023/08/09 12:50:11;;;;;;;3.70;1.92;;;26.00;99.90;;;;;;5097883;28;20176;-73
2023/08/09 12:52:37;;;;;;;3.55;1.80;;;26.10;1.00;;;;;;5072785;28;20196;-73